Time;durP1;ratioP1;P1;durP2;ratioP2;P2;SDS_P1;SDS_P2;PMS_P1;PMS_P2;Temp;Humidity;BMP_temperature;BMP_pressure;BME280_temperature;BME280_humidity;BME280_pressure;Samples;Min_cycle;Max_cycle;Signal;HPM_P1;HPM_P2
2022/01/14 00:01:44;;;;;;;41.55;20.73;;;4.30;99.90;;;;;;5039725;28;20468;-61
2022/01/14 00:04:10;;;;;;;35.15;18.88;;;4.30;99.90;;;;;;5034738;28;20061;-61
2022/01/14 00:06:37;;;;;;;47.00;21.92;;;4.30;99.90;;;;;;5030207;28;20061;-62
2022/01/14 00:09:08;;;;;;;41.10;20.98;;;4.30;99.90;;;;;;5032499;28;20029;-61
2022/01/14 00:11:56;;;;;;;43.40;21.67;;;4.30;99.90;;;;;;5037924;28;20030;-61
2022/01/14 00:14:36;;;;;;;45.33;20.98;;;4.30;99.90;;;;;;5037469;28;20429;-61
2022/01/14 00:17:03;;;;;;;;;;;4.20;99.90;;;;;;5046160;28;20070;-61
2022/01/14 00:19:28;;;;;;;46.60;22.05;;;4.20;99.90;;;;;;5039915;28;19917;-61
2022/01/14 00:21:54;;;;;;;40.78;20.40;;;4.20;99.90;;;;;;5037066;28;20032;-61
2022/01/14 00:31:42;;;;;;;42.38;21.60;;;4.20;99.90;;;;;;5029254;28;20099;-61
2022/01/14 00:32:46;;;;;;;41.83;21.38;;;4.20;99.90;;;;;;5036081;28;20561;-61
2022/01/14 00:35:11;;;;;;;44.03;19.75;;;4.10;99.90;;;;;;5028604;28;20029;-61
2022/01/14 00:37:37;;;;;;;35.10;18.67;;;4.10;99.90;;;;;;5031393;28;20543;-61
2022/01/14 00:40:03;;;;;;;36.20;19.05;;;4.10;99.90;;;;;;5032703;28;20049;-61
2022/01/14 00:42:28;;;;;;;40.30;19.05;;;4.10;99.90;;;;;;5028451;28;20060;-61
2022/01/14 00:44:54;;;;;;;39.47;20.02;;;4.10;99.90;;;;;;5035651;28;20053;-61
2022/01/14 00:47:19;;;;;;;37.92;19.27;;;4.10;99.90;;;;;;5044402;28;20052;-61
2022/01/14 00:49:45;;;;;;;36.28;18.10;;;4.10;99.90;;;;;;5044094;28;20021;-61
2022/01/14 00:52:10;;;;;;;33.53;18.40;;;4.10;99.90;;;;;;5035365;28;20029;-61
2022/01/14 00:54:36;;;;;;;45.17;19.60;;;4.20;99.90;;;;;;5037924;28;20414;-61
2022/01/14 00:59:33;;;;;;;38.95;19.45;;;4.10;99.90;;;;;;5039156;28;20033;-61
2022/01/14 01:02:01;;;;;;;37.85;18.33;;;4.10;99.90;;;;;;5039670;28;20028;-61
2022/01/14 01:04:35;;;;;;;34.28;17.80;;;4.10;99.90;;;;;;5034736;28;20034;-61
2022/01/14 01:07:04;;;;;;;31.00;16.20;;;4.10;99.90;;;;;;5030959;28;20095;-61
2022/01/14 01:09:31;;;;;;;36.08;18.25;;;4.00;99.90;;;;;;5038400;28;20040;-62
2022/01/14 01:12:11;;;;;;;35.03;17.02;;;4.00;99.90;;;;;;5038449;28;20018;-61
2022/01/14 01:17:12;;;;;;;32.47;17.77;;;4.00;99.90;;;;;;5039621;28;20044;-61
2022/01/14 01:19:38;;;;;;;39.03;18.73;;;4.00;99.90;;;;;;5044272;28;20056;-61
2022/01/14 01:22:04;;;;;;;36.63;18.25;;;4.00;99.90;;;;;;5034393;28;20029;-61
2022/01/14 01:24:30;;;;;;;34.83;18.27;;;4.10;99.90;;;;;;5036157;28;20071;-61
2022/01/14 01:26:56;;;;;;;35.60;17.27;;;4.10;99.90;;;;;;5037665;28;20029;-61
2022/01/14 01:31:54;;;;;;;30.45;15.75;;;4.10;99.90;;;;;;5041040;28;20465;-62
2022/01/14 01:34:22;;;;;;;33.05;15.32;;;4.10;99.90;;;;;;5032031;28;20457;-62
2022/01/14 01:36:51;;;;;;;35.53;16.05;;;4.20;99.90;;;;;;5031651;28;20100;-62
2022/01/14 01:39:20;;;;;;;37.50;17.35;;;4.20;99.90;;;;;;5031841;28;20025;-61
2022/01/14 01:41:52;;;;;;;38.35;18.60;;;4.20;99.90;;;;;;5042687;28;20026;-61
2022/01/14 01:44:19;;;;;;;36.42;17.85;;;4.20;99.90;;;;;;5041857;28;20453;-62
2022/01/14 01:46:47;;;;;;;38.83;18.88;;;4.20;99.90;;;;;;5039544;28;20036;-61
2022/01/14 01:49:15;;;;;;;36.88;18.17;;;4.20;99.90;;;;;;5039726;28;20476;-61
2022/01/14 01:51:43;;;;;;;39.05;18.63;;;4.20;99.90;;;;;;5031551;28;20096;-62
2022/01/14 01:54:14;;;;;;;34.63;17.33;;;4.20;99.90;;;;;;5047670;28;20021;-61
2022/01/14 01:56:39;;;;;;;31.73;15.80;;;4.20;99.90;;;;;;5045104;28;20104;-61
2022/01/14 01:59:05;;;;;;;34.85;16.42;;;4.10;99.90;;;;;;5039280;28;20446;-61
2022/01/14 02:01:32;;;;;;;38.60;17.85;;;4.10;99.90;;;;;;5037183;28;20555;-61
2022/01/14 02:03:58;;;;;;;26.95;15.00;;;4.10;99.90;;;;;;5038784;28;20517;-61
2022/01/14 02:06:24;;;;;;;39.72;17.35;;;4.10;99.90;;;;;;5044985;28;20041;-61
2022/01/14 02:08:50;;;;;;;31.63;16.75;;;4.10;99.90;;;;;;5033652;28;20030;-62
2022/01/14 02:11:16;;;;;;;32.75;16.98;;;4.20;99.90;;;;;;5033932;28;20033;-61
2022/01/14 02:13:43;;;;;;;33.67;15.57;;;4.10;99.90;;;;;;5039327;28;20562;-62
2022/01/14 02:18:46;;;;;;;32.67;15.82;;;4.20;99.90;;;;;;5039228;28;20492;-61
2022/01/14 02:24:32;;;;;;;37.38;17.20;;;4.10;99.90;;;;;;5050340;28;20086;-61
2022/01/14 02:26:54;;;;;;;35.00;16.25;;;4.10;99.90;;;;;;5039661;28;20122;-61
2022/01/14 02:29:23;;;;;;;34.15;16.83;;;4.10;99.90;;;;;;5046303;28;20545;-61
2022/01/14 02:31:49;;;;;;;32.42;15.27;;;4.10;99.90;;;;;;5051061;28;20031;-61
2022/01/14 02:34:15;;;;;;;39.83;19.45;;;4.10;99.90;;;;;;5031750;28;20100;-61
2022/01/14 02:36:46;;;;;;;32.47;16.60;;;4.10;99.90;;;;;;5032047;28;20026;-61
2022/01/14 02:39:14;;;;;;;31.00;16.02;;;4.10;99.90;;;;;;5033436;28;20088;-61
2022/01/14 02:41:42;;;;;;;33.35;16.67;;;4.10;99.90;;;;;;5037734;28;20440;-61
2022/01/14 02:44:18;;;;;;;35.47;16.20;;;4.10;99.90;;;;;;5031129;28;20033;-65
2022/01/14 02:46:51;;;;;;;31.05;15.98;;;4.10;99.90;;;;;;5040430;28;20115;-62
2022/01/14 02:49:17;;;;;;;37.70;18.17;;;4.10;99.90;;;;;;5059689;28;20036;-61
2022/01/14 02:51:43;;;;;;;34.75;17.10;;;4.10;99.90;;;;;;5030172;28;20022;-61
2022/01/14 02:54:14;;;;;;;38.13;17.67;;;4.10;99.90;;;;;;5030116;28;20018;-61
2022/01/14 02:56:43;;;;;;;40.10;20.50;;;4.10;99.90;;;;;;5038527;28;20017;-61
2022/01/14 02:59:10;;;;;;;35.80;17.98;;;4.10;99.90;;;;;;5032756;28;20030;-61
2022/01/14 03:01:37;;;;;;;35.53;17.40;;;4.00;99.90;;;;;;5030178;28;20025;-61
2022/01/14 03:04:04;;;;;;;32.92;16.63;;;4.00;99.90;;;;;;5033106;28;20030;-61
2022/01/14 03:06:30;;;;;;;40.75;16.85;;;4.00;99.90;;;;;;5035715;28;20043;-61
2022/01/14 03:08:57;;;;;;;37.58;18.95;;;4.00;99.90;;;;;;5030136;28;20047;-61
2022/01/14 03:11:34;;;;;;;35.65;17.85;;;3.90;99.90;;;;;;5035118;28;20041;-61
2022/01/14 03:14:00;;;;;;;35.88;17.33;;;4.00;99.90;;;;;;5035714;28;20025;-61
2022/01/14 03:16:26;;;;;;;34.78;17.05;;;3.90;99.90;;;;;;5031187;28;20048;-61
2022/01/14 03:18:54;;;;;;;33.70;17.75;;;3.90;99.90;;;;;;5032905;28;20048;-61
2022/01/14 03:21:28;;;;;;;34.15;17.02;;;3.90;99.90;;;;;;5035223;28;20048;-61
2022/01/14 03:24:16;;;;;;;34.60;17.73;;;3.80;99.90;;;;;;5030067;28;20062;-61
2022/01/14 03:26:42;;;;;;;32.72;16.05;;;3.80;99.90;;;;;;5040189;28;20488;-61
2022/01/14 03:29:08;;;;;;;40.80;18.95;;;3.70;99.90;;;;;;5035781;28;20029;-61
2022/01/14 03:31:34;;;;;;;30.80;17.75;;;3.70;99.90;;;;;;5037558;28;20026;-61
2022/01/14 03:33:59;;;;;;;37.53;18.17;;;3.60;99.90;;;;;;5042199;28;20447;-61
2022/01/14 03:36:25;;;;;;;37.25;17.90;;;3.60;99.90;;;;;;5041753;28;20104;-61
2022/01/14 03:38:51;;;;;;;33.67;17.27;;;3.60;99.90;;;;;;5031943;28;20025;-61
2022/01/14 03:41:16;;;;;;;37.50;17.55;;;3.60;99.90;;;;;;5038134;28;20041;-61
2022/01/14 03:43:42;;;;;;;32.55;17.52;;;3.60;99.90;;;;;;5038505;28;20025;-62
2022/01/14 03:46:08;;;;;;;31.77;16.98;;;3.60;99.90;;;;;;5035397;28;20428;-61
2022/01/14 03:48:33;;;;;;;33.15;18.38;;;3.60;99.90;;;;;;5035210;28;20053;-62
2022/01/14 03:50:59;;;;;;;32.78;16.88;;;3.60;99.90;;;;;;5036641;28;20026;-61
2022/01/14 03:53:25;;;;;;;32.63;16.42;;;3.50;99.90;;;;;;5035542;28;20033;-61
2022/01/14 03:55:50;;;;;;;29.88;15.77;;;3.50;99.90;;;;;;5031951;28;20029;-61
2022/01/14 03:58:16;;;;;;;30.70;15.32;;;3.50;99.90;;;;;;5038811;28;20117;-61
2022/01/14 04:00:42;;;;;;;33.03;15.73;;;3.50;99.90;;;;;;5043410;28;20029;-61
2022/01/14 04:03:07;;;;;;;33.22;17.60;;;3.50;99.90;;;;;;5031281;28;20013;-61
2022/01/14 04:05:34;;;;;;;34.17;17.40;;;3.60;99.90;;;;;;5035850;28;20022;-61
2022/01/14 04:08:00;;;;;;;33.42;16.58;;;3.50;99.90;;;;;;5036207;28;20504;-61
2022/01/14 04:10:26;;;;;;;35.65;16.90;;;3.50;99.90;;;;;;5030026;28;20021;-61
2022/01/14 04:13:12;;;;;;;29.23;15.85;;;3.50;99.90;;;;;;5037433;28;20025;-61
2022/01/14 04:15:40;;;;;;;33.92;17.67;;;3.50;99.90;;;;;;5034717;28;20021;-62
2022/01/14 04:18:18;;;;;;;35.08;16.27;;;3.50;99.90;;;;;;5035317;28;20108;-61
2022/01/14 04:20:47;;;;;;;35.25;17.02;;;3.50;99.90;;;;;;5035939;28;20036;-61
2022/01/14 04:23:13;;;;;;;36.97;16.88;;;3.50;99.90;;;;;;5032208;28;20465;-62
2022/01/14 04:25:40;;;;;;;36.80;17.20;;;3.50;99.90;;;;;;5041195;28;20025;-61
2022/01/14 04:28:06;;;;;;;32.53;15.55;;;3.60;99.90;;;;;;5039707;28;20521;-61
2022/01/14 04:30:32;;;;;;;30.42;15.15;;;3.60;99.90;;;;;;5028739;28;20029;-62
2022/01/14 04:32:58;;;;;;;40.08;17.10;;;3.60;99.90;;;;;;5034241;28;20461;-61
2022/01/14 04:35:24;;;;;;;32.17;16.95;;;3.60;99.90;;;;;;5037048;28;20040;-61
2022/01/14 04:37:50;;;;;;;40.47;18.83;;;3.60;99.90;;;;;;5036771;28;20025;-61
2022/01/14 04:40:16;;;;;;;37.35;18.63;;;3.50;99.90;;;;;;5031572;28;20026;-61
2022/01/14 04:42:43;;;;;;;35.13;18.50;;;3.50;99.90;;;;;;5031212;28;20040;-61
2022/01/14 04:45:11;;;;;;;35.75;16.15;;;3.50;99.90;;;;;;5034306;28;20026;-62
2022/01/14 04:47:46;;;;;;;44.10;16.83;;;3.60;99.90;;;;;;5045134;28;20466;-61
2022/01/14 04:50:17;;;;;;;37.28;17.58;;;3.60;99.90;;;;;;5039774;28;20079;-61
2022/01/14 04:52:45;;;;;;;37.47;19.77;;;3.60;99.90;;;;;;5031340;28;20024;-61
2022/01/14 04:55:11;;;;;;;34.92;16.90;;;3.60;99.90;;;;;;5039724;28;20025;-61
2022/01/14 04:57:38;;;;;;;36.47;17.58;;;3.60;99.90;;;;;;5033936;28;20026;-61
2022/01/14 05:00:11;;;;;;;34.20;16.73;;;3.60;99.90;;;;;;5031236;28;20021;-62
2022/01/14 05:02:37;;;;;;;36.42;17.08;;;3.60;99.90;;;;;;5034048;28;20076;-61
2022/01/14 05:05:04;;;;;;;37.45;16.88;;;3.60;99.90;;;;;;5033291;28;20477;-61
2022/01/14 05:07:30;;;;;;;39.63;18.10;;;3.60;99.90;;;;;;5043019;28;20052;-61
2022/01/14 05:10:08;;;;;;;31.95;15.30;;;3.60;99.90;;;;;;5034253;28;20070;-61
2022/01/14 05:12:38;;;;;;;36.88;16.52;;;3.60;99.90;;;;;;5031197;28;20075;-61
2022/01/14 05:15:04;;;;;;;33.40;17.50;;;3.60;99.90;;;;;;5036192;28;20372;-61
2022/01/14 05:17:30;;;;;;;32.70;15.80;;;3.60;99.90;;;;;;5037238;28;20485;-61
2022/01/14 05:19:58;;;;;;;30.98;15.85;;;3.60;99.90;;;;;;5036290;28;20087;-61
2022/01/14 05:22:24;;;;;;;36.28;16.77;;;3.60;99.90;;;;;;5032878;28;20035;-61
2022/01/14 05:24:50;;;;;;;29.52;15.35;;;3.60;99.90;;;;;;5042198;28;20378;-61
2022/01/14 05:27:16;;;;;;;32.78;16.48;;;3.60;99.90;;;;;;5036280;28;20029;-61
2022/01/14 05:29:41;;;;;;;33.25;16.67;;;3.60;99.90;;;;;;5035613;28;20026;-61
2022/01/14 05:32:12;;;;;;;34.15;17.17;;;3.60;99.90;;;;;;5042693;28;20029;-62
2022/01/14 05:34:39;;;;;;;28.80;14.77;;;3.50;99.90;;;;;;5037428;28;20013;-61
2022/01/14 05:37:05;;;;;;;30.55;15.02;;;3.50;99.90;;;;;;5033417;28;20029;-61
2022/01/14 05:39:31;;;;;;;35.97;16.17;;;3.50;99.90;;;;;;5037139;28;20599;-61
2022/01/14 05:41:59;;;;;;;29.67;15.38;;;3.50;99.90;;;;;;5033459;28;20025;-61
2022/01/14 05:44:25;;;;;;;30.88;15.32;;;3.60;99.90;;;;;;5055046;28;20389;-61
2022/01/14 05:46:51;;;;;;;27.10;14.00;;;3.60;99.90;;;;;;5045126;28;20017;-61
2022/01/14 05:49:17;;;;;;;33.88;15.95;;;3.60;99.90;;;;;;5034305;28;20515;-61
2022/01/14 05:51:52;;;;;;;25.23;14.40;;;3.60;99.90;;;;;;5038851;28;20032;-63
2022/01/14 05:54:18;;;;;;;35.47;16.02;;;3.60;99.90;;;;;;5039258;28;20029;-61
2022/01/14 05:56:44;;;;;;;35.63;16.50;;;3.60;99.90;;;;;;5031498;28;20028;-61
2022/01/14 05:59:10;;;;;;;32.55;16.88;;;3.60;99.90;;;;;;5036598;28;20017;-62
2022/01/14 06:01:36;;;;;;;32.83;14.93;;;3.60;99.90;;;;;;5037635;28;20545;-61
2022/01/14 06:04:03;;;;;;;30.40;15.15;;;3.60;99.90;;;;;;5034681;28;20116;-62
2022/01/14 06:06:29;;;;;;;27.80;15.32;;;3.60;99.90;;;;;;5040154;28;20021;-61
2022/01/14 06:09:14;;;;;;;32.10;15.93;;;3.60;99.90;;;;;;5037889;28;20478;-62
2022/01/14 06:11:40;;;;;;;28.73;13.95;;;3.60;99.90;;;;;;5036542;28;20032;-61
2022/01/14 06:14:05;;;;;;;26.77;13.98;;;3.60;99.90;;;;;;5035900;28;20385;-61
2022/01/14 06:16:42;;;;;;;28.00;14.30;;;3.60;99.90;;;;;;5047472;28;20103;-62
2022/01/14 06:19:07;;;;;;;27.85;12.77;;;3.60;99.90;;;;;;5034347;28;20542;-61
2022/01/14 06:21:33;;;;;;;29.13;14.25;;;3.60;99.90;;;;;;5032373;28;20033;-61
2022/01/14 06:23:58;;;;;;;27.15;13.88;;;3.70;99.90;;;;;;5032126;28;20079;-61
2022/01/14 06:26:24;;;;;;;32.50;15.85;;;3.60;99.90;;;;;;5053872;28;20021;-61
2022/01/14 06:28:50;;;;;;;30.63;15.82;;;3.60;99.90;;;;;;5054308;28;20032;-61
2022/01/14 06:31:15;;;;;;;33.67;15.60;;;3.60;99.90;;;;;;5053224;28;20033;-61
2022/01/14 06:33:43;;;;;;;33.33;18.23;;;3.70;99.90;;;;;;5054391;28;20021;-61
2022/01/14 06:36:09;;;;;;;34.10;18.08;;;3.60;99.90;;;;;;5054566;28;20021;-61
2022/01/14 06:38:35;;;;;;;29.33;16.75;;;3.60;99.90;;;;;;5054502;28;20036;-61
2022/01/14 06:41:02;;;;;;;35.17;19.00;;;3.50;99.90;;;;;;5053677;28;20464;-61
2022/01/14 06:43:27;;;;;;;32.25;16.95;;;3.50;99.90;;;;;;5054102;28;20025;-61
2022/01/14 06:46:24;;;;;;;;;;;;;;;;;;;;;
2022/01/14 06:48:49;;;;;;;31.33;17.30;;;3.50;99.90;;;;;;5054318;28;20055;-61
2022/01/14 06:51:15;;;;;;;33.13;15.55;;;3.40;99.90;;;;;;5054268;28;20558;-62
2022/01/14 06:53:42;;;;;;;30.48;15.98;;;3.40;99.90;;;;;;5050245;28;20031;-61
2022/01/14 06:56:33;;;;;;;30.40;15.60;;;3.40;99.90;;;;;;5050088;28;20033;-62
2022/01/14 06:58:58;;;;;;;28.98;14.48;;;3.40;99.90;;;;;;5053226;28;20100;-61
2022/01/14 07:01:24;;;;;;;27.27;14.43;;;3.40;99.90;;;;;;5054167;28;20056;-61
2022/01/14 07:03:49;;;;;;;32.50;13.88;;;3.50;99.90;;;;;;5052959;28;20028;-61
2022/01/14 07:06:15;;;;;;;31.20;16.17;;;3.50;99.90;;;;;;5041778;28;20116;-61
2022/01/14 07:08:40;;;;;;;30.08;14.73;;;3.50;99.90;;;;;;5033999;28;20473;-61
2022/01/14 07:11:06;;;;;;;28.35;14.07;;;3.50;99.90;;;;;;5033879;28;20031;-61
2022/01/14 07:13:32;;;;;;;32.88;13.93;;;3.50;99.90;;;;;;5033824;28;20022;-61
2022/01/14 07:15:57;;;;;;;37.60;15.55;;;3.50;99.90;;;;;;5036989;28;20021;-61
2022/01/14 07:18:23;;;;;;;28.45;15.23;;;3.50;99.90;;;;;;5053852;28;20424;-61
2022/01/14 07:21:07;;;;;;;;;;;;;;;;;;;;;
2022/01/14 07:26:35;;;;;;;25.83;14.30;;;3.40;99.90;;;;;;5052165;28;20091;-61
2022/01/14 07:29:00;;;;;;;26.70;14.68;;;3.40;99.90;;;;;;5053505;28;20241;-61
2022/01/14 07:31:29;;;;;;;26.17;13.20;;;3.40;99.90;;;;;;5052049;28;20102;-61
2022/01/14 07:33:54;;;;;;;25.55;13.75;;;3.40;99.90;;;;;;5053225;28;20025;-61
2022/01/14 07:36:20;;;;;;;31.60;14.57;;;3.40;99.90;;;;;;5052194;28;20029;-61
2022/01/14 07:38:47;;;;;;;34.40;16.33;;;3.40;99.90;;;;;;5053274;28;20021;-62
2022/01/14 07:41:23;;;;;;;;;;;;;;;;;;;;;
2022/01/14 07:44:20;;;;;;;;;;;;;;;;;;;;;
2022/01/14 07:47:17;;;;;;;30.38;15.13;;;3.40;99.90;;;;;;5052272;28;20032;-61
2022/01/14 07:49:43;;;;;;;29.40;14.05;;;3.40;99.90;;;;;;5039747;28;20374;-61
2022/01/14 07:52:08;;;;;;;26.95;14.18;;;3.40;99.90;;;;;;5049392;28;20128;-61
2022/01/14 07:54:34;;;;;;;26.55;13.82;;;3.40;99.90;;;;;;5051583;28;20028;-61
2022/01/14 07:57:00;;;;;;;29.30;14.18;;;3.40;99.90;;;;;;5046819;28;20025;-61
2022/01/14 07:59:33;;;;;;;21.33;10.63;;;3.40;99.90;;;;;;5049040;28;20052;-62
2022/01/14 08:02:22;;;;;;;24.10;13.15;;;3.50;99.90;;;;;;5048554;28;20083;-62
2022/01/14 08:04:48;;;;;;;26.57;11.87;;;3.50;99.90;;;;;;5049914;28;20110;-62
2022/01/14 08:07:43;;;;;;;;;;;;;;;;;;;;;
2022/01/14 08:11:34;;;;;;;30.10;13.25;;;3.50;99.90;;;;;;5050103;28;20491;-61
2022/01/14 08:13:41;;;;;;;27.27;14.27;;;3.50;99.90;;;;;;5036827;28;20120;-61
2022/01/14 08:16:06;;;;;;;34.25;15.65;;;3.40;99.90;;;;;;5052608;28;20095;-62
2022/01/14 08:18:32;;;;;;;28.75;14.82;;;3.40;99.90;;;;;;5048802;28;20056;-61
2022/01/14 08:20:59;;;;;;;25.75;14.02;;;3.40;99.90;;;;;;5049245;28;20072;-62
2022/01/14 08:23:24;;;;;;;23.52;13.50;;;3.40;99.90;;;;;;5052760;28;20013;-62
2022/01/14 08:25:55;;;;;;;28.45;14.25;;;3.40;99.90;;;;;;5052399;28;20040;-61
2022/01/14 08:28:21;;;;;;;25.25;12.57;;;3.40;99.90;;;;;;5052933;28;20025;-62
2022/01/14 08:30:58;;;;;;;24.88;12.10;;;3.40;99.90;;;;;;5051452;28;20033;-62
2022/01/14 08:33:24;;;;;;;28.50;11.82;;;3.50;99.90;;;;;;5036842;28;20175;-61
2022/01/14 08:35:49;;;;;;;30.85;13.13;;;3.50;99.90;;;;;;5032601;28;20509;-62
2022/01/14 08:38:15;;;;;;;21.77;12.18;;;3.50;99.90;;;;;;5031432;28;20189;-62
2022/01/14 08:40:41;;;;;;;21.90;12.40;;;3.50;99.90;;;;;;5030625;28;20025;-62
2022/01/14 08:43:07;;;;;;;27.42;13.50;;;3.50;99.90;;;;;;5032425;28;20037;-62
2022/01/14 08:45:33;;;;;;;24.73;11.73;;;3.60;99.90;;;;;;5032428;28;20079;-62
2022/01/14 08:47:59;;;;;;;23.10;11.82;;;3.50;99.90;;;;;;5037225;28;20029;-62
2022/01/14 08:50:31;;;;;;;22.73;11.85;;;3.60;99.90;;;;;;5052037;28;20423;-62
2022/01/14 08:52:59;;;;;;;29.17;13.95;;;3.60;99.90;;;;;;5052160;28;20036;-61
2022/01/14 08:55:24;;;;;;;29.13;13.15;;;3.60;99.90;;;;;;5052511;28;20029;-61
2022/01/14 08:57:50;;;;;;;23.05;13.15;;;3.60;99.90;;;;;;5052186;28;20160;-62
2022/01/14 09:00:17;;;;;;;26.50;11.80;;;3.70;99.90;;;;;;5052277;28;20029;-62
2022/01/14 09:02:43;;;;;;;25.02;12.00;;;3.70;99.90;;;;;;5051941;28;20028;-61
2022/01/14 09:05:09;;;;;;;29.10;12.15;;;3.70;99.90;;;;;;5050900;28;20377;-62
2022/01/14 09:07:35;;;;;;;29.23;12.43;;;3.70;99.90;;;;;;5054973;28;20453;-62
2022/01/14 09:10:02;;;;;;;24.83;11.90;;;3.70;99.90;;;;;;5055999;28;20099;-62
2022/01/14 09:12:27;;;;;;;24.33;11.18;;;3.70;99.90;;;;;;5056084;28;20035;-61
2022/01/14 09:14:53;;;;;;;21.48;10.75;;;3.70;99.90;;;;;;5055744;28;20100;-62
2022/01/14 09:17:18;;;;;;;23.90;11.45;;;3.70;99.90;;;;;;5055679;28;20104;-61
2022/01/14 09:19:51;;;;;;;24.20;11.82;;;3.70;99.90;;;;;;5055643;28;20052;-62
2022/01/14 09:22:18;;;;;;;19.90;9.35;;;3.80;99.90;;;;;;5055702;28;20055;-62
2022/01/14 09:24:45;;;;;;;19.40;9.82;;;3.80;99.90;;;;;;5055608;28;20498;-62
2022/01/14 09:28:05;;;;;;;28.05;12.07;;;3.80;99.90;;;;;;5055638;28;20060;-62
2022/01/14 09:30:31;;;;;;;22.15;12.00;;;3.80;99.90;;;;;;5055734;28;20025;-61
2022/01/14 09:32:56;;;;;;;28.67;14.50;;;3.80;99.90;;;;;;5055316;28;20031;-62
2022/01/14 09:35:23;;;;;;;24.38;11.85;;;3.80;99.90;;;;;;5055520;28;20087;-61
2022/01/14 09:37:50;;;;;;;26.35;11.98;;;3.70;99.90;;;;;;5054188;28;20553;-62
2022/01/14 09:40:16;;;;;;;19.92;11.18;;;3.70;99.90;;;;;;5055573;28;20021;-62
2022/01/14 09:42:50;;;;;;;29.88;14.63;;;3.70;99.90;;;;;;5055440;28;20036;-62
2022/01/14 09:45:17;;;;;;;26.48;13.25;;;3.80;99.90;;;;;;5054004;28;20064;-62
2022/01/14 09:48:12;;;;;;;30.33;13.73;;;3.70;99.90;;;;;;5045075;28;20025;-62
2022/01/14 09:50:38;;;;;;;25.30;14.43;;;3.70;99.90;;;;;;5054316;28;20041;-61
2022/01/14 09:53:03;;;;;;;28.90;14.75;;;3.70;99.90;;;;;;5055203;28;20108;-62
2022/01/14 09:55:29;;;;;;;32.30;15.38;;;3.70;99.90;;;;;;5054928;28;20025;-62
2022/01/14 09:57:55;;;;;;;22.42;12.98;;;3.70;99.90;;;;;;5055082;28;20051;-62
2022/01/14 10:00:21;;;;;;;32.30;16.33;;;3.70;99.90;;;;;;5055256;28;20358;-61
2022/01/14 10:02:49;;;;;;;26.75;14.75;;;3.70;99.90;;;;;;5055055;28;20063;-62
2022/01/14 10:05:51;;;;;;;26.60;14.70;;;3.70;99.90;;;;;;5054724;28;20036;-62
2022/01/14 10:08:24;;;;;;;26.65;15.52;;;3.70;99.90;;;;;;5049182;28;20124;-61
2022/01/14 10:10:55;;;;;;;26.63;14.52;;;3.60;99.90;;;;;;5050323;28;20385;-61
2022/01/14 10:16:34;;;;;;;28.40;14.98;;;3.60;99.90;;;;;;5043882;28;20028;-62
2022/01/14 10:19:00;;;;;;;31.65;15.80;;;3.60;99.90;;;;;;5045430;28;20044;-62
2022/01/14 10:21:33;;;;;;;30.65;15.27;;;3.60;99.90;;;;;;5052814;28;20470;-61
2022/01/14 10:24:02;;;;;;;28.90;16.85;;;3.70;99.90;;;;;;5053452;28;20028;-62
2022/01/14 10:26:46;;;;;;;29.25;16.25;;;3.70;99.90;;;;;;5055001;28;20033;-62
2022/01/14 10:29:11;;;;;;;31.98;15.13;;;3.70;99.90;;;;;;5051735;28;20123;-61
2022/01/14 10:31:37;;;;;;;28.92;15.52;;;3.60;99.90;;;;;;5055429;28;20176;-61
2022/01/14 10:34:16;;;;;;;28.38;15.38;;;3.70;99.90;;;;;;5056813;28;20354;-61
2022/01/14 10:36:43;;;;;;;33.23;18.13;;;3.70;99.90;;;;;;5059595;28;20400;-61
2022/01/14 10:39:20;;;;;;;29.73;15.63;;;3.70;99.90;;;;;;5061592;28;20025;-62
2022/01/14 10:41:46;;;;;;;30.40;17.30;;;3.70;99.90;;;;;;5060567;28;20512;-62
2022/01/14 10:44:33;;;;;;;28.77;15.73;;;3.70;99.90;;;;;;5056223;28;20062;-62
2022/01/14 10:47:35;;;;;;;31.08;16.20;;;3.70;99.90;;;;;;5062961;28;20079;-62
2022/01/14 10:50:01;;;;;;;30.95;15.45;;;3.70;99.90;;;;;;5068486;28;20036;-62
2022/01/14 10:52:36;;;;;;;31.63;16.80;;;3.70;99.90;;;;;;5059126;28;20111;-62
2022/01/14 10:55:11;;;;;;;31.23;16.65;;;3.70;99.90;;;;;;5062468;28;20098;-62
2022/01/14 10:57:36;;;;;;;32.25;15.85;;;3.80;99.90;;;;;;5068087;28;20742;-62
2022/01/14 11:00:17;;;;;;;30.25;16.30;;;3.80;99.90;;;;;;5056868;28;20048;-62
2022/01/14 11:02:56;;;;;;;24.58;14.70;;;3.90;99.90;;;;;;5065940;28;20025;-62
2022/01/14 11:05:23;;;;;;;28.20;15.53;;;3.80;99.90;;;;;;5064157;28;20043;-62
2022/01/14 11:07:51;;;;;;;28.05;15.02;;;3.90;99.90;;;;;;5056214;28;20025;-62
2022/01/14 11:10:34;;;;;;;24.70;14.90;;;3.90;99.90;;;;;;5064245;28;20054;-62
2022/01/14 11:13:01;;;;;;;26.05;14.38;;;3.90;99.90;;;;;;5053165;28;20516;-62
2022/01/14 11:15:30;;;;;;;29.40;15.13;;;4.00;99.90;;;;;;5051057;28;20029;-62
2022/01/14 11:18:00;;;;;;;25.03;14.27;;;4.00;99.90;;;;;;5067454;28;20024;-61
2022/01/14 11:23:30;;;;;;;31.67;16.98;;;4.10;99.90;;;;;;5059265;28;20032;-62
2022/01/14 11:27:07;;;;;;;;;;;;;;;;;;;;;
2022/01/14 11:29:39;;;;;;;27.15;14.68;;;4.10;99.90;;;;;;5057153;28;20036;-61
2022/01/14 11:32:05;;;;;;;28.73;15.35;;;4.10;99.90;;;;;;5056084;28;20035;-62
2022/01/14 11:34:42;;;;;;;29.65;16.02;;;4.10;99.90;;;;;;5066357;28;20043;-62
2022/01/14 11:37:10;;;;;;;28.17;16.23;;;4.20;99.90;;;;;;5063600;28;20067;-62
2022/01/14 11:39:38;;;;;;;24.00;13.95;;;4.20;99.90;;;;;;5057189;28;20049;-62
2022/01/14 11:42:09;;;;;;;21.63;12.50;;;4.20;99.90;;;;;;5049869;28;20103;-62
2022/01/14 11:44:41;;;;;;;18.85;11.55;;;4.30;99.90;;;;;;5033930;28;20108;-62
2022/01/14 11:47:07;;;;;;;22.38;13.35;;;4.40;99.90;;;;;;5048404;28;20021;-62
2022/01/14 11:50:01;;;;;;;23.73;14.38;;;4.40;99.90;;;;;;5066619;28;20021;-62
2022/01/14 11:53:04;;;;;;;22.52;13.85;;;4.40;99.90;;;;;;5043245;28;20063;-62
2022/01/14 11:55:35;;;;;;;28.65;17.23;;;4.40;99.90;;;;;;5057812;28;20025;-61
2022/01/14 11:58:21;;;;;;;24.90;14.40;;;4.40;99.90;;;;;;5068785;28;20032;-62
2022/01/14 12:00:47;;;;;;;27.63;14.55;;;4.40;99.90;;;;;;5059907;28;20500;-62
2022/01/14 12:03:17;;;;;;;23.67;13.65;;;4.50;99.90;;;;;;5060814;28;20562;-62
2022/01/14 12:05:53;;;;;;;;;;;4.50;99.90;;;;;;5067824;28;20028;-62
2022/01/14 12:08:21;;;;;;;21.98;13.48;;;4.50;99.90;;;;;;5052050;28;19908;-62
2022/01/14 12:10:59;;;;;;;21.25;13.30;;;4.50;99.90;;;;;;5057134;28;20036;-61
2022/01/14 12:19:31;;;;;;;;;;;;;;;;;;;;;
2022/01/14 12:21:58;;;;;;;25.70;16.67;;;4.70;99.90;;;;;;5067907;28;20036;-64
2022/01/14 12:24:27;;;;;;;24.20;14.98;;;4.60;99.90;;;;;;5056926;28;20116;-64
2022/01/14 12:26:56;;;;;;;22.92;13.90;;;4.70;99.90;;;;;;5062677;28;20485;-64
2022/01/14 12:29:41;;;;;;;24.23;14.05;;;4.70;99.90;;;;;;5064760;28;20436;-64
2022/01/14 12:32:09;;;;;;;29.20;16.58;;;4.80;99.90;;;;;;5050404;28;20079;-64
2022/01/14 12:34:59;;;;;;;28.13;16.25;;;4.70;99.90;;;;;;5040962;28;20393;-64
2022/01/14 12:37:39;;;;;;;26.00;16.92;;;4.70;99.90;;;;;;5044777;28;20104;-64
2022/01/14 12:40:20;;;;;;;27.00;15.67;;;4.70;99.90;;;;;;5050550;28;20091;-64
2022/01/14 12:42:59;;;;;;;26.02;16.30;;;4.70;99.90;;;;;;5048538;28;20026;-64
2022/01/14 12:45:28;;;;;;;34.75;17.83;;;4.80;99.90;;;;;;5039279;28;20029;-63
2022/01/14 12:48:29;;;;;;;30.60;18.27;;;4.70;99.90;;;;;;5052299;28;20381;-64
2022/01/14 12:51:22;;;;;;;26.90;15.85;;;4.70;99.90;;;;;;5053264;28;20501;-64
2022/01/14 12:53:53;;;;;;;22.33;13.18;;;4.70;99.90;;;;;;5071530;28;20036;-64
2022/01/14 12:56:20;;;;;;;31.60;18.10;;;4.70;99.90;;;;;;5057285;28;20070;-64
2022/01/14 12:58:58;;;;;;;37.35;20.73;;;4.70;99.90;;;;;;5053228;28;20043;-64
2022/01/14 13:01:29;;;;;;;38.05;21.17;;;4.70;99.90;;;;;;5055617;28;20017;-64
2022/01/14 13:04:00;;;;;;;36.15;21.08;;;4.60;99.90;;;;;;5055705;28;20025;-64
2022/01/14 13:06:53;;;;;;;36.90;21.27;;;4.50;99.90;;;;;;5056284;28;20025;-64
2022/01/14 13:09:24;;;;;;;37.55;21.33;;;4.50;99.90;;;;;;5055649;28;20050;-64
2022/01/14 13:12:22;;;;;;;35.65;20.55;;;4.40;99.90;;;;;;5055884;28;20082;-65
2022/01/14 13:14:53;;;;;;;32.50;20.02;;;4.50;99.90;;;;;;5054727;28;20385;-64
2022/01/14 13:17:26;;;;;;;34.58;20.70;;;4.50;99.90;;;;;;5055964;28;20021;-64
2022/01/14 13:20:06;;;;;;;31.25;19.17;;;4.50;99.90;;;;;;5055510;28;20489;-64
2022/01/14 13:22:38;;;;;;;35.50;19.98;;;4.50;99.90;;;;;;5055865;28;20025;-64
2022/01/14 13:25:23;;;;;;;39.30;22.20;;;4.50;99.90;;;;;;5055745;28;20070;-64
2022/01/14 13:27:53;;;;;;;39.75;21.88;;;4.60;99.90;;;;;;5055447;28;20029;-64
2022/01/14 13:30:20;;;;;;;;;;;4.60;99.90;;;;;;5056363;28;20112;-64
2022/01/14 13:32:47;;;;;;;34.05;21.33;;;4.50;99.90;;;;;;5055580;28;19909;-64
2022/01/14 13:35:22;;;;;;;34.55;20.58;;;4.50;99.90;;;;;;5055804;28;20021;-64
2022/01/14 13:37:50;;;;;;;36.78;22.00;;;4.50;99.90;;;;;;5055397;28;20096;-64